createdAt,value
2022-07-29T00:00:16.762Z,9.21
2022-07-29T00:00:48.039Z,9.21
2022-07-29T00:01:19.853Z,9.21
2022-07-29T00:01:52.033Z,9.21
2022-07-29T00:02:23.456Z,8.90
2022-07-29T00:02:56.102Z,8.90
2022-07-29T00:03:27.386Z,8.90
2022-07-29T00:04:00.290Z,8.90
2022-07-29T00:04:31.362Z,9.31
2022-07-29T00:05:04.035Z,9.31
2022-07-29T00:05:35.348Z,9.00
2022-07-29T00:06:07.962Z,9.00
2022-07-29T00:06:39.185Z,8.90
2022-07-29T00:07:12.008Z,8.90
2022-07-29T00:07:43.175Z,9.00
2022-07-29T00:08:15.758Z,9.00
2022-07-29T00:08:47.257Z,9.00
2022-07-29T00:09:19.571Z,9.00
2022-07-29T00:09:52.512Z,9.00
2022-07-29T00:10:23.872Z,9.00
2022-07-29T00:10:54.932Z,9.00
2022-07-29T00:11:27.751Z,9.00
2022-07-29T00:11:58.908Z,9.00
2022-07-29T00:12:31.642Z,9.00
2022-07-29T00:13:02.999Z,9.00
2022-07-29T00:13:35.792Z,9.00
2022-07-29T00:14:06.819Z,9.00
2022-07-29T00:14:39.525Z,9.00
2022-07-29T00:15:11.614Z,9.04
2022-07-29T00:15:43.806Z,9.04
2022-07-29T00:16:14.811Z,9.00
2022-07-29T00:16:47.441Z,9.00
2022-07-29T00:17:18.976Z,9.04
2022-07-29T00:17:51.450Z,9.04
2022-07-29T00:18:22.737Z,9.04
2022-07-29T00:18:55.405Z,9.04
2022-07-29T00:19:26.644Z,9.04
2022-07-29T00:19:59.143Z,9.04
2022-07-29T00:20:31.073Z,9.04
2022-07-29T00:21:03.252Z,9.04
2022-07-29T00:21:34.606Z,9.04
2022-07-29T00:22:07.281Z,9.04
2022-07-29T00:22:38.664Z,9.04
2022-07-29T00:23:13.654Z,9.04
2022-07-29T00:23:42.678Z,9.04
2022-07-29T00:24:15.536Z,9.04
2022-07-29T00:24:46.457Z,9.04
2022-07-29T00:25:19.310Z,9.04
2022-07-29T00:25:50.376Z,9.04
2022-07-29T00:26:23.054Z,9.04
2022-07-29T00:26:54.421Z,9.04
2022-07-29T00:27:26.967Z,9.04
2022-07-29T00:27:58.340Z,9.04
2022-07-29T00:28:30.986Z,9.04
2022-07-29T00:29:32.602Z,8.73
2022-07-29T00:29:50.407Z,8.73
2022-07-29T00:30:23.189Z,9.04
2022-07-29T00:30:54.938Z,9.04
2022-07-29T00:31:26.355Z,8.73
2022-07-29T00:31:58.838Z,8.73
2022-07-29T00:32:30.270Z,9.04
2022-07-29T00:33:05.853Z,9.04
2022-07-29T00:33:34.042Z,8.73
2022-07-29T00:34:06.818Z,8.73
2022-07-29T00:34:38.135Z,8.83
2022-07-29T00:35:10.635Z,8.83
2022-07-29T00:35:42.117Z,9.14
2022-07-29T00:36:14.640Z,9.14
2022-07-29T00:36:45.966Z,9.14
2022-07-29T00:37:18.519Z,9.14
2022-07-29T00:37:50.023Z,8.83
2022-07-29T00:38:22.526Z,8.83
2022-07-29T00:38:53.954Z,8.83
2022-07-29T00:39:26.376Z,8.83
2022-07-29T00:39:57.954Z,8.83
2022-07-29T00:40:30.640Z,8.83
2022-07-29T00:41:01.942Z,9.14
2022-07-29T00:41:34.549Z,9.14
2022-07-29T00:42:05.850Z,8.83
2022-07-29T00:42:38.541Z,8.83
2022-07-29T00:43:09.680Z,8.83
2022-07-29T00:43:42.203Z,8.83
2022-07-29T00:44:13.938Z,8.83
2022-07-29T00:44:46.352Z,8.83
2022-07-29T00:45:18.321Z,8.83
2022-07-29T00:45:50.367Z,8.83
2022-07-29T00:46:21.776Z,8.83
2022-07-29T00:46:54.322Z,8.83
2022-07-29T00:47:25.601Z,8.83
2022-07-29T00:47:58.217Z,8.83
2022-07-29T00:48:29.516Z,8.83
2022-07-29T00:49:02.034Z,8.83
2022-07-29T00:49:33.387Z,8.83
2022-07-29T00:50:06.114Z,8.83
2022-07-29T00:50:37.417Z,8.83
2022-07-29T00:51:10.100Z,8.83
2022-07-29T00:51:41.340Z,8.83
2022-07-29T00:52:16.939Z,8.83
2022-07-29T00:52:45.369Z,8.83
2022-07-29T00:53:17.775Z,8.83
2022-07-29T00:53:49.198Z,8.83
2022-07-29T00:54:22.014Z,8.83
2022-07-29T00:54:53.375Z,8.83
2022-07-29T00:55:27.255Z,8.83
2022-07-29T00:55:57.229Z,8.83
2022-07-29T00:56:29.786Z,8.83
2022-07-29T00:57:01.049Z,8.83
2022-07-29T00:57:33.816Z,8.83
2022-07-29T00:58:05.124Z,8.83
2022-07-29T00:58:37.782Z,8.83
2022-07-29T00:59:09.079Z,8.94
2022-07-29T00:59:41.676Z,8.94
2022-07-29T01:00:13.916Z,8.83
2022-07-29T01:00:45.680Z,8.83
2022-07-29T01:01:17.228Z,8.83
2022-07-29T01:01:49.655Z,8.83
2022-07-29T01:02:21.010Z,8.83
2022-07-29T01:02:53.520Z,8.83
2022-07-29T01:03:24.861Z,8.83
2022-07-29T01:03:57.329Z,8.83
2022-07-29T01:04:28.850Z,8.83
2022-07-29T01:05:01.864Z,8.83
2022-07-29T01:05:48.148Z,8.83
2022-07-29T01:06:05.380Z,8.83
2022-07-29T01:06:36.915Z,8.83
2022-07-29T01:07:09.476Z,8.83
2022-07-29T01:07:40.785Z,8.73
2022-07-29T01:08:13.599Z,8.73
2022-07-29T01:08:44.699Z,8.83
2022-07-29T01:09:17.198Z,8.83
2022-07-29T01:09:48.776Z,8.73
2022-07-29T01:10:21.447Z,8.73
2022-07-29T01:10:52.677Z,8.73
2022-07-29T01:11:25.341Z,8.73
2022-07-29T01:11:56.475Z,8.73
2022-07-29T01:12:29.235Z,8.73
2022-07-29T01:13:00.552Z,8.73
2022-07-29T01:13:32.983Z,8.73
2022-07-29T01:14:04.525Z,8.73
2022-07-29T01:14:37.314Z,8.73
2022-07-29T01:15:09.182Z,8.69
2022-07-29T01:15:41.068Z,8.69
2022-07-29T01:16:12.547Z,8.69
2022-07-29T01:16:44.854Z,8.69
2022-07-29T01:17:16.421Z,8.69
2022-07-29T01:17:52.403Z,8.69
2022-07-29T01:18:21.996Z,8.69
2022-07-29T01:18:53.854Z,8.69
2022-07-29T01:19:24.205Z,8.59
2022-07-29T01:19:56.596Z,8.59
2022-07-29T01:20:31.735Z,8.59
2022-07-29T01:21:00.858Z,8.59
2022-07-29T01:21:32.124Z,8.59
2022-07-29T01:22:04.725Z,8.59
2022-07-29T01:22:36.150Z,8.80
2022-07-29T01:23:08.993Z,8.80
2022-07-29T01:23:40.041Z,8.80
2022-07-29T01:24:13.508Z,8.80
2022-07-29T01:24:44.054Z,8.80
2022-07-29T01:25:16.859Z,8.80
2022-07-29T01:25:53.127Z,8.80
2022-07-29T01:26:20.752Z,8.80
2022-07-29T01:26:52.001Z,8.69
2022-07-29T01:27:24.607Z,8.69
2022-07-29T01:27:56.003Z,8.69
2022-07-29T01:28:28.412Z,8.69
2022-07-29T01:28:59.856Z,8.69
2022-07-29T01:29:38.788Z,8.69
2022-07-29T01:30:05.160Z,8.59
2022-07-29T01:30:19.781Z,8.59
2022-07-29T01:30:52.001Z,8.90
2022-07-29T01:31:25.402Z,8.90
2022-07-29T01:31:59.316Z,8.90
2022-07-29T01:32:29.170Z,8.90
2022-07-29T01:33:00.352Z,8.90
2022-07-29T01:33:31.642Z,8.90
2022-07-29T01:34:04.032Z,8.90
2022-07-29T01:34:35.626Z,8.90
2022-07-29T01:35:08.398Z,8.90
2022-07-29T01:35:39.474Z,8.90
2022-07-29T01:36:12.037Z,8.90
2022-07-29T01:36:43.638Z,8.90
2022-07-29T01:37:16.151Z,8.86
2022-07-29T01:37:47.474Z,8.86
2022-07-29T01:38:20.129Z,8.86
2022-07-29T01:38:51.573Z,8.86
2022-07-29T01:39:24.065Z,8.86
2022-07-29T01:39:55.480Z,8.86
2022-07-29T01:40:28.507Z,8.86
2022-07-29T01:40:59.269Z,8.86
2022-07-29T01:41:31.955Z,8.86
2022-07-29T01:42:03.365Z,8.86
2022-07-29T01:42:36.348Z,8.86
2022-07-29T01:43:07.296Z,8.86
2022-07-29T01:43:40.016Z,8.86
2022-07-29T01:44:11.157Z,8.86
2022-07-29T01:44:44.241Z,8.76
2022-07-29T01:45:15.965Z,8.76
2022-07-29T01:45:47.923Z,8.76
2022-07-29T01:46:19.217Z,8.76
2022-07-29T01:46:52.076Z,8.76
2022-07-29T01:47:23.125Z,8.76
2022-07-29T01:47:55.782Z,8.76
2022-07-29T01:48:27.059Z,8.76
2022-07-29T01:48:59.597Z,8.76
2022-07-29T01:49:31.049Z,8.76
2022-07-29T01:50:03.916Z,8.66
2022-07-29T01:50:35.138Z,8.66
2022-07-29T01:51:07.759Z,8.66
2022-07-29T01:51:39.019Z,8.66
2022-07-29T01:52:11.536Z,8.66
2022-07-29T01:52:42.943Z,8.66
2022-07-29T01:53:15.468Z,8.55
2022-07-29T01:53:46.956Z,8.55
2022-07-29T01:54:19.654Z,8.55
2022-07-29T01:54:50.873Z,8.55
2022-07-29T01:55:23.644Z,8.86
2022-07-29T01:55:54.833Z,8.86
2022-07-29T01:56:27.303Z,8.76
2022-07-29T01:56:58.832Z,8.76
2022-07-29T01:57:31.229Z,8.76
2022-07-29T01:58:02.837Z,8.76
2022-07-29T01:58:35.482Z,8.76
2022-07-29T01:59:06.541Z,8.76
2022-07-29T01:59:39.572Z,9.01
2022-07-29T02:00:12.218Z,9.01
2022-07-29T02:00:43.648Z,9.01
2022-07-29T02:01:14.689Z,9.01
2022-07-29T02:01:47.119Z,9.01
2022-07-29T02:02:18.553Z,9.01
2022-07-29T02:02:51.173Z,9.01
2022-07-29T02:03:22.716Z,9.01
2022-07-29T02:03:55.036Z,9.01
2022-07-29T02:04:28.865Z,9.01
2022-07-29T02:04:59.197Z,9.01
2022-07-29T02:05:30.840Z,9.01
2022-07-29T02:06:03.102Z,9.01
2022-07-29T02:06:34.427Z,9.01
2022-07-29T02:07:06.963Z,9.01
2022-07-29T02:07:38.302Z,9.01
2022-07-29T02:08:11.145Z,8.91
2022-07-29T02:08:42.556Z,8.91
2022-07-29T02:09:14.936Z,8.91
2022-07-29T02:09:46.235Z,8.91
2022-07-29T02:10:19.254Z,9.21
2022-07-29T02:10:50.183Z,9.21
2022-07-29T02:11:22.855Z,9.21
2022-07-29T02:11:54.216Z,9.21
2022-07-29T02:12:26.808Z,9.21
2022-07-29T02:12:58.095Z,9.21
2022-07-29T02:13:30.827Z,9.21
2022-07-29T02:14:01.882Z,9.21
2022-07-29T02:14:34.539Z,9.21
2022-07-29T02:15:06.882Z,9.21
2022-07-29T02:15:38.587Z,9.21
2022-07-29T02:16:10.110Z,9.10
2022-07-29T02:16:42.580Z,9.10
2022-07-29T02:17:13.720Z,8.81
2022-07-29T02:17:47.702Z,8.81
2022-07-29T02:18:17.892Z,9.10
2022-07-29T02:18:50.278Z,9.10
2022-07-29T02:19:21.727Z,9.10
2022-07-29T02:19:54.415Z,9.10
2022-07-29T02:20:25.992Z,8.99
2022-07-29T02:20:58.266Z,8.99
2022-07-29T02:21:29.698Z,8.99
2022-07-29T02:22:02.243Z,8.99
2022-07-29T02:22:33.691Z,8.99
2022-07-29T02:23:06.698Z,8.99
2022-07-29T02:23:45.170Z,8.99
2022-07-29T02:24:10.114Z,8.99
2022-07-29T02:24:41.626Z,8.99
2022-07-29T02:25:14.426Z,8.99
2022-07-29T02:25:45.429Z,8.89
2022-07-29T02:26:18.187Z,8.89
2022-07-29T02:26:49.888Z,8.89
2022-07-29T02:27:21.994Z,8.89
2022-07-29T02:27:53.484Z,8.89
2022-07-29T02:28:26.034Z,8.89
2022-07-29T02:28:57.372Z,8.85
2022-07-29T02:29:29.918Z,8.85
2022-07-29T02:30:02.721Z,8.85
2022-07-29T02:30:33.808Z,8.85
2022-07-29T02:31:05.343Z,9.13
2022-07-29T02:31:38.161Z,9.13
2022-07-29T02:32:09.165Z,9.13
2022-07-29T02:32:42.002Z,9.13
2022-07-29T02:33:13.302Z,8.75
2022-07-29T02:33:45.689Z,8.75
2022-07-29T02:34:17.535Z,8.75
2022-07-29T02:34:49.904Z,8.75
2022-07-29T02:35:21.335Z,9.03
2022-07-29T02:35:53.702Z,9.03
2022-07-29T02:36:25.206Z,9.03
2022-07-29T02:36:57.796Z,9.03
2022-07-29T02:37:29.083Z,9.03
2022-07-29T02:38:02.224Z,9.03
2022-07-29T02:38:33.132Z,8.93
2022-07-29T02:39:05.582Z,8.93
2022-07-29T02:39:37.058Z,8.93
2022-07-29T02:40:09.697Z,8.93
2022-07-29T02:40:40.993Z,8.93
2022-07-29T02:41:13.407Z,8.93
2022-07-29T02:41:45.086Z,8.93
2022-07-29T02:42:18.033Z,8.93
2022-07-29T02:42:48.893Z,8.93
2022-07-29T02:43:21.467Z,8.93
2022-07-29T02:43:52.737Z,8.82
2022-07-29T02:44:25.433Z,8.82
2022-07-29T02:44:56.854Z,8.82
2022-07-29T02:45:30.208Z,8.82
2022-07-29T02:46:00.839Z,8.82
2022-07-29T02:46:33.442Z,8.82
2022-07-29T02:47:04.749Z,8.82
2022-07-29T02:47:42.069Z,8.82
2022-07-29T02:48:08.750Z,8.72
2022-07-29T02:48:41.200Z,8.72
2022-07-29T02:49:12.593Z,8.72
2022-07-29T02:49:45.169Z,8.72
2022-07-29T02:50:16.675Z,8.72
2022-07-29T02:50:49.219Z,8.72
2022-07-29T02:51:44.135Z,8.72
2022-07-29T02:51:52.944Z,8.72
2022-07-29T02:52:24.421Z,8.72
2022-07-29T02:52:57.067Z,8.72
2022-07-29T02:53:28.332Z,8.67
2022-07-29T02:54:01.184Z,8.67
2022-07-29T02:54:32.433Z,8.67
2022-07-29T02:55:05.389Z,8.67
2022-07-29T02:55:36.228Z,8.57
2022-07-29T02:56:08.936Z,8.57
2022-07-29T02:56:40.339Z,8.57
2022-07-29T02:57:12.743Z,8.57
2022-07-29T02:57:54.345Z,8.57
2022-07-29T02:58:16.848Z,8.57
2022-07-29T02:58:48.048Z,8.57
2022-07-29T02:59:20.786Z,8.57
2022-07-29T02:59:52.250Z,8.47
2022-07-29T03:00:26.091Z,8.47
2022-07-29T03:00:56.128Z,8.47
2022-07-29T03:01:28.731Z,8.47
2022-07-29T03:02:00.146Z,8.47
2022-07-29T03:02:32.629Z,8.47
2022-07-29T03:03:04.095Z,8.47
2022-07-29T03:03:37.758Z,8.47
2022-07-29T03:04:07.887Z,8.47
2022-07-29T03:04:40.614Z,8.47
2022-07-29T03:05:12.125Z,8.36
2022-07-29T03:05:44.454Z,8.36
2022-07-29T03:06:28.559Z,8.36
2022-07-29T03:06:48.669Z,8.36
2022-07-29T03:07:19.806Z,8.25
2022-07-29T03:07:52.601Z,8.25
2022-07-29T03:08:23.707Z,8.54
2022-07-29T03:08:56.371Z,8.54
2022-07-29T03:09:27.617Z,8.54
2022-07-29T03:10:00.568Z,8.54
2022-07-29T03:10:31.477Z,8.54
2022-07-29T03:11:04.202Z,8.54
2022-07-29T03:11:42.243Z,8.49
2022-07-29T03:12:08.318Z,8.49
2022-07-29T03:12:39.697Z,8.49
2022-07-29T03:13:12.361Z,8.49
2022-07-29T03:13:43.613Z,8.49
2022-07-29T03:14:16.545Z,8.49
2022-07-29T03:14:47.570Z,8.49
2022-07-29T03:15:20.781Z,8.49
2022-07-29T03:15:51.567Z,8.39
2022-07-29T03:16:24.270Z,8.39
2022-07-29T03:16:55.453Z,8.39
2022-07-29T03:17:28.069Z,8.39
2022-07-29T03:17:59.525Z,8.39
2022-07-29T03:18:31.915Z,8.39
2022-07-29T03:19:03.310Z,8.29
2022-07-29T03:19:36.557Z,8.29
2022-07-29T03:20:07.413Z,8.29
2022-07-29T03:20:39.742Z,8.29
2022-07-29T03:21:11.446Z,8.29
2022-07-29T03:21:43.845Z,8.29
2022-07-29T03:22:15.268Z,8.44
2022-07-29T03:22:47.816Z,8.44
2022-07-29T03:23:19.138Z,8.44
2022-07-29T03:23:51.732Z,8.44
2022-07-29T03:24:23.154Z,8.44
2022-07-29T03:24:55.757Z,8.44
2022-07-29T03:25:27.326Z,8.34
2022-07-29T03:25:59.711Z,8.34
2022-07-29T03:26:30.888Z,8.34
2022-07-29T03:27:03.610Z,8.34
2022-07-29T03:27:35.054Z,8.34
2022-07-29T03:28:07.663Z,8.34
2022-07-29T03:28:38.923Z,8.34
2022-07-29T03:29:11.774Z,8.34
2022-07-29T03:29:49.590Z,8.30
2022-07-29T03:30:32.251Z,8.58
2022-07-29T03:31:02.905Z,8.58
2022-07-29T03:31:34.866Z,8.58
2022-07-29T03:32:08.736Z,8.58
2022-07-29T03:32:38.816Z,8.30
2022-07-29T03:33:13.487Z,8.30
2022-07-29T03:33:42.793Z,8.30
2022-07-29T03:34:14.970Z,8.30
2022-07-29T03:34:31.676Z,8.30
2022-07-29T03:35:02.836Z,8.19
2022-07-29T03:35:35.476Z,8.19
2022-07-29T03:36:06.751Z,8.19
2022-07-29T03:36:39.485Z,8.19
2022-07-29T03:37:10.621Z,8.19
2022-07-29T03:37:58.669Z,8.19
2022-07-29T03:38:30.951Z,8.19
2022-07-29T03:39:02.548Z,8.19
2022-07-29T03:39:34.482Z,8.19
2022-07-29T03:40:06.678Z,8.19
2022-07-29T03:40:38.403Z,8.19
2022-07-29T03:41:12.331Z,8.19
2022-07-29T03:41:42.525Z,8.19
2022-07-29T03:42:34.203Z,8.09
2022-07-29T03:43:02.330Z,8.09
2022-07-29T03:43:34.957Z,8.63
2022-07-29T03:44:06.412Z,8.63
2022-07-29T03:44:40.242Z,8.63
2022-07-29T03:45:11.097Z,8.63
2022-07-29T03:45:43.171Z,8.63
2022-07-29T03:46:14.326Z,8.63
2022-07-29T03:46:46.992Z,8.63
2022-07-29T03:47:18.230Z,8.63
2022-07-29T03:47:53.750Z,8.88
2022-07-29T03:48:22.200Z,8.88
2022-07-29T03:48:54.829Z,8.63
2022-07-29T03:49:26.566Z,8.63
2022-07-29T03:49:58.779Z,8.63
2022-07-29T03:50:30.491Z,8.63
2022-07-29T03:51:02.695Z,8.63
2022-07-29T03:51:34.422Z,8.63
2022-07-29T03:52:06.830Z,8.63
2022-07-29T03:52:38.246Z,8.63
2022-07-29T03:53:10.606Z,8.63
2022-07-29T03:53:42.098Z,8.63
2022-07-29T03:54:14.695Z,8.37
2022-07-29T03:54:45.998Z,8.37
2022-07-29T03:55:18.965Z,8.37
2022-07-29T03:55:49.962Z,8.37
2022-07-29T03:56:22.666Z,8.26
2022-07-29T03:56:54.012Z,8.26
2022-07-29T03:57:26.706Z,8.26
2022-07-29T03:57:57.830Z,8.26
2022-07-29T03:58:30.449Z,8.26
2022-07-29T03:59:01.893Z,8.26
2022-07-29T03:59:34.444Z,8.26
2022-07-29T04:00:06.845Z,8.26
2022-07-29T04:00:38.582Z,8.26
2022-07-29T04:01:09.675Z,8.26
2022-07-29T04:01:42.809Z,8.16
2022-07-29T04:02:14.798Z,8.16
2022-07-29T04:02:46.359Z,8.16
2022-07-29T04:03:17.720Z,8.16
2022-07-29T04:03:50.443Z,8.16
2022-07-29T04:04:21.490Z,8.16
2022-07-29T04:04:54.188Z,8.11
2022-07-29T04:05:25.878Z,8.11
2022-07-29T04:05:58.017Z,8.37
2022-07-29T04:06:29.497Z,8.37
2022-07-29T04:07:02.191Z,8.37
2022-07-29T04:07:33.436Z,8.37
2022-07-29T04:08:06.239Z,8.37
2022-07-29T04:08:37.487Z,8.37
2022-07-29T04:09:10.200Z,8.37
2022-07-29T04:09:41.340Z,8.37
2022-07-29T04:10:14.320Z,8.26
2022-07-29T04:10:45.288Z,8.26
2022-07-29T04:11:17.883Z,8.26
2022-07-29T04:12:02.103Z,8.26
2022-07-29T04:12:21.785Z,8.26
2022-07-29T04:12:53.230Z,8.26
2022-07-29T04:13:26.030Z,8.26
2022-07-29T04:13:57.200Z,8.26
2022-07-29T04:14:29.614Z,8.26
2022-07-29T04:15:02.301Z,8.26
2022-07-29T04:15:33.925Z,8.26
2022-07-29T04:16:05.266Z,8.26
2022-07-29T04:16:37.808Z,8.16
2022-07-29T04:17:09.275Z,8.16
2022-07-29T04:17:41.664Z,8.16
2022-07-29T04:18:12.974Z,8.16
2022-07-29T04:18:45.711Z,8.16
2022-07-29T04:19:16.962Z,8.16
2022-07-29T04:19:49.496Z,8.16
2022-07-29T04:20:21.188Z,8.16
2022-07-29T04:20:53.725Z,8.42
2022-07-29T04:21:24.895Z,8.42
2022-07-29T04:21:57.760Z,8.30
2022-07-29T04:22:28.867Z,8.30
2022-07-29T04:23:01.517Z,8.42
2022-07-29T04:23:32.843Z,8.42
2022-07-29T04:24:05.140Z,8.30
2022-07-29T04:24:36.799Z,8.30
2022-07-29T04:25:09.570Z,8.30
2022-07-29T04:25:40.675Z,8.30
2022-07-29T04:26:13.575Z,8.30
2022-07-29T04:26:44.756Z,8.30
2022-07-29T04:27:17.389Z,8.57
2022-07-29T04:27:48.691Z,8.57
2022-07-29T04:28:21.405Z,8.57
2022-07-29T04:28:52.784Z,8.57
2022-07-29T04:29:25.207Z,8.57
2022-07-29T04:29:57.590Z,8.57
2022-07-29T04:30:30.258Z,8.82
2022-07-29T04:31:00.467Z,8.82
2022-07-29T04:31:33.041Z,8.82
2022-07-29T04:32:04.517Z,8.82
2022-07-29T04:32:37.048Z,8.82
2022-07-29T04:33:08.445Z,8.82
2022-07-29T04:33:41.183Z,8.82
2022-07-29T04:34:12.402Z,8.82
2022-07-29T04:34:44.993Z,8.47
2022-07-29T04:35:16.561Z,8.47
2022-07-29T04:35:52.393Z,8.57
2022-07-29T04:36:28.551Z,8.57
2022-07-29T04:36:53.012Z,8.47
2022-07-29T04:37:24.621Z,8.47
2022-07-29T04:37:56.739Z,8.57
2022-07-29T04:38:28.249Z,8.57
2022-07-29T04:39:00.940Z,8.47
2022-07-29T04:39:32.173Z,8.47
2022-07-29T04:40:05.114Z,8.57
2022-07-29T04:40:38.663Z,8.57
2022-07-29T04:41:08.705Z,8.47
2022-07-29T04:41:40.034Z,8.47
2022-07-29T04:42:13.306Z,8.47
2022-07-29T04:42:46.714Z,8.47
2022-07-29T04:43:16.683Z,8.57
2022-07-29T04:43:47.992Z,8.57
2022-07-29T04:44:20.503Z,8.57
2022-07-29T04:44:51.984Z,8.57
2022-07-29T04:45:25.582Z,8.57
2022-07-29T04:45:55.932Z,8.57
2022-07-29T04:46:28.520Z,8.57
2022-07-29T04:46:59.911Z,8.57
2022-07-29T04:47:32.392Z,8.57
2022-07-29T04:48:03.852Z,8.57
2022-07-29T04:48:36.456Z,8.57
2022-07-29T04:49:07.942Z,8.57
2022-07-29T04:49:40.392Z,8.57
2022-07-29T04:50:11.935Z,8.57
2022-07-29T04:50:44.593Z,8.82
2022-07-29T04:51:15.597Z,8.82
2022-07-29T04:51:48.204Z,8.82
2022-07-29T04:52:19.755Z,8.82
2022-07-29T04:52:52.113Z,8.82
2022-07-29T04:53:23.733Z,8.82
2022-07-29T04:53:56.242Z,9.06
2022-07-29T04:54:27.512Z,9.06
2022-07-29T04:55:00.018Z,9.06
2022-07-29T04:55:31.773Z,9.06
2022-07-29T04:56:03.993Z,9.06
2022-07-29T04:56:35.441Z,9.06
2022-07-29T04:57:08.257Z,9.06
2022-07-29T04:57:39.484Z,9.06
2022-07-29T04:58:12.127Z,9.18
2022-07-29T04:58:43.398Z,9.18
2022-07-29T04:59:16.057Z,8.94
2022-07-29T04:59:47.329Z,8.94
2022-07-29T05:00:20.774Z,9.18
2022-07-29T05:00:51.302Z,9.18
2022-07-29T05:01:23.945Z,9.18
2022-07-29T05:01:55.376Z,9.18
2022-07-29T05:02:28.055Z,9.18
2022-07-29T05:02:59.243Z,9.18
2022-07-29T05:03:31.819Z,9.04
2022-07-29T05:04:03.238Z,9.04
2022-07-29T05:04:35.651Z,9.04
2022-07-29T05:05:07.284Z,9.04
2022-07-29T05:05:39.823Z,9.04
2022-07-29T05:06:11.118Z,9.04
2022-07-29T05:06:43.788Z,9.04
2022-07-29T05:07:15.172Z,9.04
2022-07-29T05:07:47.595Z,9.04
2022-07-29T05:08:18.994Z,9.04
2022-07-29T05:08:51.617Z,9.14
2022-07-29T05:09:22.958Z,9.14
2022-07-29T05:09:55.377Z,9.14
2022-07-29T05:10:27.220Z,9.14
2022-07-29T05:10:59.376Z,9.14
2022-07-29T05:11:30.825Z,9.14
2022-07-29T05:12:03.444Z,9.19
2022-07-29T05:12:34.793Z,9.19
2022-07-29T05:13:07.399Z,9.14
2022-07-29T05:13:45.001Z,9.14
2022-07-29T05:14:11.399Z,9.19
2022-07-29T05:14:42.688Z,9.19
2022-07-29T05:15:16.030Z,9.19
2022-07-29T05:15:46.850Z,9.19
2022-07-29T05:16:19.282Z,9.19
2022-07-29T05:16:50.673Z,9.19
2022-07-29T05:17:23.236Z,9.29
2022-07-29T05:17:54.693Z,9.29
2022-07-29T05:18:27.243Z,9.43
2022-07-29T05:18:58.607Z,9.43
2022-07-29T05:19:31.117Z,9.29
2022-07-29T05:20:02.678Z,9.29
2022-07-29T05:20:35.468Z,9.29
2022-07-29T05:21:06.442Z,9.29
2022-07-29T05:21:39.093Z,9.29
2022-07-29T05:22:10.568Z,9.29
2022-07-29T05:22:43.017Z,9.29
2022-07-29T05:23:14.427Z,9.29
2022-07-29T05:23:46.980Z,9.29
2022-07-29T05:24:18.702Z,9.29
2022-07-29T05:24:51.121Z,9.29
2022-07-29T05:25:22.663Z,9.29
2022-07-29T05:25:55.118Z,9.29
2022-07-29T05:26:26.224Z,9.29
2022-07-29T05:26:58.968Z,9.40
2022-07-29T05:27:30.105Z,9.40
2022-07-29T05:28:02.797Z,9.40
2022-07-29T05:28:34.193Z,9.40
2022-07-29T05:29:07.019Z,9.40
2022-07-29T05:29:41.184Z,9.40
2022-07-29T05:30:11.485Z,9.65
2022-07-29T05:30:42.264Z,9.65
2022-07-29T05:31:14.551Z,9.40
2022-07-29T05:31:46.079Z,9.40
2022-07-29T05:32:18.736Z,9.51
2022-07-29T05:32:49.935Z,9.51
2022-07-29T05:33:35.700Z,9.51
2022-07-29T05:33:54.043Z,9.51
2022-07-29T05:34:26.493Z,9.61
2022-07-29T05:34:57.922Z,9.61
2022-07-29T05:35:30.899Z,9.61
2022-07-29T05:36:01.819Z,9.61
2022-07-29T05:36:34.588Z,9.66
2022-07-29T05:37:05.950Z,9.66
2022-07-29T05:37:38.237Z,9.50
2022-07-29T05:38:10.056Z,9.50
2022-07-29T05:38:42.589Z,9.72
2022-07-29T05:39:14.081Z,9.50
2022-07-29T05:39:49.074Z,9.82
2022-07-29T05:40:18.123Z,9.82
2022-07-29T05:40:50.531Z,9.87
2022-07-29T05:41:21.780Z,9.87
2022-07-29T05:41:54.475Z,9.81
2022-07-29T05:42:26.019Z,9.81
2022-07-29T05:42:58.447Z,9.92
2022-07-29T05:43:29.952Z,9.92
2022-07-29T05:44:02.397Z,9.81
2022-07-29T05:44:33.700Z,9.81
2022-07-29T05:45:07.241Z,10.02
2022-07-29T05:45:49.673Z,10.02
2022-07-29T05:46:10.445Z,9.87
2022-07-29T05:46:41.796Z,9.87
2022-07-29T05:47:14.334Z,9.73
2022-07-29T05:47:45.590Z,9.73
2022-07-29T05:48:18.304Z,9.73
2022-07-29T05:48:49.739Z,9.73
2022-07-29T05:49:26.943Z,10.05
2022-07-29T05:49:53.485Z,10.05
2022-07-29T05:50:26.922Z,9.92
2022-07-29T05:50:57.444Z,9.92
2022-07-29T05:51:30.021Z,10.14
2022-07-29T05:52:01.552Z,10.14
2022-07-29T05:52:34.182Z,10.24
2022-07-29T05:53:19.353Z,10.24
2022-07-29T05:53:38.091Z,10.38
2022-07-29T05:54:09.586Z,10.38
2022-07-29T05:54:41.950Z,10.49
2022-07-29T05:55:13.719Z,10.49
2022-07-29T05:55:46.497Z,10.41
2022-07-29T05:56:17.265Z,10.41
2022-07-29T05:56:49.911Z,10.51
2022-07-29T05:57:21.349Z,10.51
2022-07-29T05:57:53.793Z,10.37
2022-07-29T05:58:25.154Z,10.37
2022-07-29T05:58:57.729Z,10.48
2022-07-29T05:59:30.604Z,10.48
2022-07-29T06:00:03.431Z,10.58
2022-07-29T06:00:33.145Z,10.58
2022-07-29T06:01:05.512Z,10.73
2022-07-29T06:01:37.166Z,10.73
2022-07-29T06:02:09.805Z,10.83
2022-07-29T06:02:41.068Z,10.83
2022-07-29T06:03:13.666Z,10.74
2022-07-29T06:03:45.024Z,10.74
2022-07-29T06:04:17.805Z,10.84
2022-07-29T06:04:49.020Z,10.84
2022-07-29T06:05:21.821Z,10.59
2022-07-29T06:05:52.818Z,10.59
2022-07-29T06:06:25.346Z,10.80
2022-07-29T06:06:56.960Z,10.80
2022-07-29T06:07:29.563Z,10.90
2022-07-29T06:08:00.887Z,10.90
2022-07-29T06:08:33.524Z,11.04
2022-07-29T06:09:12.137Z,11.04
2022-07-29T06:09:37.307Z,10.83
2022-07-29T06:10:08.772Z,10.83
2022-07-29T06:10:41.279Z,10.94
2022-07-29T06:11:12.805Z,10.94
2022-07-29T06:11:45.234Z,11.14
2022-07-29T06:12:16.638Z,11.14
2022-07-29T06:12:49.399Z,10.87
2022-07-29T06:13:20.501Z,10.87
2022-07-29T06:13:53.153Z,10.65
2022-07-29T06:14:24.582Z,10.65
2022-07-29T06:14:57.139Z,10.76
2022-07-29T06:15:29.537Z,10.76
2022-07-29T06:16:01.355Z,10.86
2022-07-29T06:16:32.550Z,10.86
2022-07-29T06:17:05.162Z,10.96
2022-07-29T06:17:36.504Z,10.96
2022-07-29T06:18:09.000Z,11.00
2022-07-29T06:18:40.363Z,11.00
2022-07-29T06:19:13.022Z,11.10
2022-07-29T06:19:44.457Z,11.10
2022-07-29T06:20:17.081Z,11.21
2022-07-29T06:20:48.444Z,11.21
2022-07-29T06:21:20.878Z,10.64
2022-07-29T06:21:52.199Z,10.64
2022-07-29T06:22:25.094Z,11.08
2022-07-29T06:22:56.178Z,11.08
2022-07-29T06:23:29.290Z,10.79
2022-07-29T06:24:00.255Z,10.79
2022-07-29T06:24:32.934Z,11.12
2022-07-29T06:25:06.913Z,11.12
2022-07-29T06:25:37.049Z,11.22
2022-07-29T06:26:08.237Z,11.22
2022-07-29T06:26:40.662Z,11.43
2022-07-29T06:27:12.367Z,11.43
2022-07-29T06:27:44.797Z,11.43
2022-07-29T06:28:16.181Z,11.43
2022-07-29T06:28:49.201Z,11.53
2022-07-29T06:29:20.501Z,11.53
2022-07-29T06:29:52.641Z,11.19
2022-07-29T06:30:25.075Z,11.19
2022-07-29T06:30:56.657Z,11.53
2022-07-29T06:31:27.969Z,11.53
2022-07-29T06:32:00.518Z,11.19
2022-07-29T06:32:31.758Z,11.19
2022-07-29T06:33:04.552Z,11.53
2022-07-29T06:33:35.905Z,11.53
2022-07-29T06:34:08.924Z,11.19
2022-07-29T06:34:40.173Z,11.19
2022-07-29T06:35:40.900Z,11.43
2022-07-29T06:35:59.859Z,11.43
2022-07-29T06:36:31.749Z,11.43
2022-07-29T06:37:04.079Z,11.33
2022-07-29T06:37:35.895Z,11.33
2022-07-29T06:38:30.191Z,10.99
2022-07-29T06:38:42.871Z,10.99
2022-07-29T06:39:12.285Z,11.22
2022-07-29T06:39:44.377Z,11.22
2022-07-29T06:40:16.320Z,11.22
2022-07-29T06:40:48.695Z,11.22
2022-07-29T06:41:20.704Z,10.79
2022-07-29T06:41:53.535Z,10.79
2022-07-29T06:42:23.797Z,11.12
2022-07-29T06:42:56.398Z,11.12
2022-07-29T06:43:27.583Z,11.12
2022-07-29T06:44:00.414Z,11.12
2022-07-29T06:44:31.712Z,11.41
2022-07-29T06:45:09.206Z,11.41
2022-07-29T06:45:35.389Z,11.12
2022-07-29T06:46:08.250Z,11.12
2022-07-29T06:46:39.307Z,11.22
2022-07-29T06:47:11.972Z,11.22
2022-07-29T06:47:43.195Z,11.33
2022-07-29T06:48:15.766Z,11.33
2022-07-29T06:48:47.225Z,11.33
2022-07-29T06:49:19.848Z,11.33
2022-07-29T06:49:51.010Z,11.53
2022-07-29T06:50:07.787Z,11.53
2022-07-29T06:50:39.398Z,11.53
2022-07-29T06:51:11.419Z,11.57
2022-07-29T06:51:43.036Z,11.57
2022-07-29T06:52:15.201Z,11.53
2022-07-29T06:52:47.634Z,11.53
2022-07-29T06:53:19.016Z,11.53
2022-07-29T06:53:59.919Z,11.53
2022-07-29T06:54:23.012Z,11.53
2022-07-29T06:54:55.675Z,11.53
2022-07-29T06:55:27.057Z,11.67
2022-07-29T06:55:59.532Z,11.67
2022-07-29T06:56:31.078Z,11.78
2022-07-29T06:57:03.560Z,11.78
2022-07-29T06:57:34.703Z,11.78
2022-07-29T06:58:07.550Z,11.78
2022-07-29T06:58:38.866Z,11.98
2022-07-29T06:59:11.468Z,11.98
2022-07-29T06:59:42.945Z,11.69
2022-07-29T07:00:16.803Z,11.69
2022-07-29T07:00:46.820Z,11.79
2022-07-29T07:01:19.266Z,11.79
2022-07-29T07:01:50.766Z,12.23
2022-07-29T07:02:23.315Z,12.23
2022-07-29T07:02:54.771Z,12.10
2022-07-29T07:03:27.419Z,12.10